Time;durP1;ratioP1;P1;durP2;ratioP2;P2;SDS_P1;SDS_P2;PMS_P1;PMS_P2;Temp;Humidity;BMP_temperature;BMP_pressure;BME280_temperature;BME280_humidity;BME280_pressure;Samples;Min_cycle;Max_cycle;Signal;HPM_P1;HPM_P2
2023/05/03 00:01:20;;;;;;;1.75;0.70;;;;;;;6.41;87.90;101922.06;5109626;28;20086;-72
2023/05/03 00:03:51;;;;;;;1.65;0.80;;;;;;;6.45;86.98;101928.13;5107491;29;20027;-71
2023/05/03 00:06:22;;;;;;;2.10;0.80;;;;;;;6.32;88.24;101931.56;5106732;28;20090;-72
2023/05/03 00:08:52;;;;;;;3.20;0.90;;;;;;;6.35;87.24;101936.75;5105466;29;20175;-72
2023/05/03 00:11:22;;;;;;;4.80;1.10;;;;;;;6.30;87.46;101934.16;5108173;28;20214;-73
2023/05/03 00:13:53;;;;;;;3.28;1.33;;;;;;;6.33;88.54;101928.97;5092868;29;20028;-74
2023/05/03 00:16:23;;;;;;;3.38;0.90;;;;;;;6.16;87.94;101934.94;5104128;28;20078;-74
2023/05/03 00:18:53;;;;;;;4.40;0.90;;;;;;;6.17;88.00;101932.38;5106398;29;20038;-74
2023/05/03 00:21:24;;;;;;;2.08;1.02;;;;;;;6.03;89.86;101935.75;5107174;28;20399;-72
2023/05/03 00:23:54;;;;;;;3.88;0.70;;;;;;;6.17;87.86;101926.31;5106994;29;20074;-73
2023/05/03 00:26:25;;;;;;;2.67;0.85;;;;;;;6.20;86.11;101932.38;5108217;28;20016;-73
2023/05/03 00:28:55;;;;;;;1.52;0.85;;;;;;;6.00;88.70;101934.03;5107174;28;20040;-74
2023/05/03 00:31:25;;;;;;;1.90;0.80;;;;;;;5.81;88.95;101932.22;5108516;28;20036;-72
2023/05/03 00:33:56;;;;;;;1.75;0.77;;;;;;;5.65;88.67;101934.66;5106126;28;20472;-71
2023/05/03 00:36:27;;;;;;;2.25;0.75;;;;;;;5.42;91.38;101936.25;5109161;28;20027;-71
2023/05/03 00:38:57;;;;;;;1.88;0.90;;;;;;;5.22;92.55;101931.75;5106933;28;20028;-70
2023/05/03 00:41:27;;;;;;;1.40;0.65;;;;;;;5.08;94.25;101934.25;5107281;28;20505;-71
2023/05/03 00:43:57;;;;;;;3.25;1.10;;;;;;;4.99;95.85;101934.16;5107577;28;20039;-71
2023/05/03 00:46:28;;;;;;;3.10;1.02;;;;;;;5.17;95.19;101929.13;5106322;28;20038;-71
2023/05/03 00:48:58;;;;;;;2.20;0.73;;;;;;;5.33;93.55;101932.72;5107363;29;20286;-72
2023/05/03 00:51:28;;;;;;;2.83;0.98;;;;;;;5.30;93.69;101930.13;5106907;29;20034;-73
2023/05/03 00:53:59;;;;;;;3.22;1.27;;;;;;;5.20;94.92;101924.00;5108163;28;20378;-71
2023/05/03 00:56:31;;;;;;;1.95;1.00;;;;;;;5.13;94.75;101929.13;5109266;28;20027;-73
2023/05/03 00:59:02;;;;;;;1.85;0.90;;;;;;;5.05;96.47;101931.66;5106614;28;20367;-71
2023/05/03 01:01:32;;;;;;;1.45;0.80;;;;;;;4.90;95.85;101928.91;5109780;29;20035;-72
2023/05/03 01:04:05;;;;;;;2.10;1.60;;;;;;;4.83;97.12;101932.28;5106512;29;20358;-71
2023/05/03 01:06:44;;;;;;;4.35;1.23;;;;;;;4.84;97.05;101928.00;5109013;28;20066;-73
2023/05/03 01:09:20;;;;;;;2.47;0.90;;;;;;;4.76;97.82;101927.91;5105268;29;20035;-71
2023/05/03 01:12:33;;;;;;;3.28;1.40;;;;;;;4.92;96.95;101932.38;5107092;28;20055;-73
2023/05/03 01:15:08;;;;;;;1.45;0.80;;;;;;;4.82;97.08;101934.88;5110528;28;20046;-73
2023/05/03 01:17:47;;;;;;;4.00;1.00;;;;;;;4.75;97.09;101941.72;5099241;29;20187;-72
2023/05/03 01:20:24;;;;;;;5.18;0.77;;;;;;;4.77;95.55;101934.81;5104931;29;20031;-73
2023/05/03 01:22:57;;;;;;;2.42;1.00;;;;;;;4.69;97.04;101939.09;5108717;29;20034;-73
2023/05/03 01:25:28;;;;;;;2.33;0.90;;;;;;;4.50;97.46;101939.72;5110335;28;20602;-70
2023/05/03 01:27:58;;;;;;;3.40;0.98;;;;;;;4.29;98.21;101939.50;5108800;29;20050;-71
2023/05/03 01:30:31;;;;;;;3.67;1.10;;;;;;;4.34;97.30;101940.44;5110037;28;20034;-72
2023/05/03 01:33:20;;;;;;;1.90;0.90;;;;;;;4.28;96.70;101940.34;5112321;28;20034;-71
2023/05/03 01:35:56;;;;;;;3.22;1.13;;;;;;;4.20;97.27;101947.16;5110438;28;20502;-72
2023/05/03 01:38:35;;;;;;;4.70;0.88;;;;;;;4.11;97.70;101952.19;5110055;29;20091;-71
2023/05/03 01:41:10;;;;;;;5.43;1.33;;;;;;;4.00;98.35;101948.63;5110661;28;20161;-71
2023/05/03 01:43:42;;;;;;;4.30;1.25;;;;;;;3.89;99.94;101954.50;5106395;29;20418;-73
2023/05/03 01:46:13;;;;;;;6.63;1.40;;;;;;;4.15;98.67;101948.78;5111226;28;20041;-70
2023/05/03 01:48:44;;;;;;;3.55;1.20;;;;;;;4.29;97.58;101942.06;5111784;28;20038;-72
2023/05/03 01:51:14;;;;;;;3.25;1.00;;;;;;;4.38;96.78;101947.38;5110519;29;20027;-73
2023/05/03 01:53:44;;;;;;;3.72;1.20;;;;;;;4.25;97.05;101954.94;5113231;28;20038;-72
2023/05/03 01:56:15;;;;;;;4.03;1.10;;;;;;;4.05;97.64;101953.84;5111753;28;20507;-72
2023/05/03 01:58:45;;;;;;;4.43;1.33;;;;;;;4.11;99.34;101948.78;5110089;29;20057;-72
2023/05/03 02:01:15;;;;;;;4.07;1.20;;;;;;;4.10;99.98;101955.63;5111548;29;20019;-73
2023/05/03 02:03:45;;;;;;;2.78;0.90;;;;;;;4.32;97.56;101946.44;5111721;28;20066;-73
2023/05/03 02:06:16;;;;;;;2.95;1.08;;;;;;;4.38;95.50;101942.19;5111510;28;20160;-72
2023/05/03 02:08:46;;;;;;;2.53;1.10;;;;;;;4.09;95.16;101953.06;5111558;28;20077;-70
2023/05/03 02:11:16;;;;;;;4.45;1.23;;;;;;;3.98;97.24;101950.31;5111736;29;20114;-72
2023/05/03 02:13:50;;;;;;;4.07;0.90;;;;;;;3.86;97.78;101963.09;5109311;28;20462;-73
2023/05/03 02:16:20;;;;;;;5.03;1.30;;;;;;;3.93;98.10;101962.31;5109466;28;20409;-73
2023/05/03 02:18:52;;;;;;;2.95;1.20;;;;;;;3.91;97.32;101964.00;5109750;28;20035;-73
2023/05/03 02:21:22;;;;;;;2.72;1.10;;;;;;;3.84;97.79;101966.50;5110454;28;20571;-73
2023/05/03 02:23:53;;;;;;;6.18;1.55;;;;;;;3.68;97.68;101975.75;5108376;29;20031;-72
2023/05/03 02:26:23;;;;;;;1.48;0.98;;;;;;;3.76;98.63;101978.47;5109856;28;20565;-72
2023/05/03 02:28:55;;;;;;;2.03;0.93;;;;;;;3.81;97.78;101975.06;5106681;28;20070;-73
2023/05/03 02:31:26;;;;;;;2.90;1.20;;;;;;;3.75;98.17;101972.41;5110328;28;20026;-72
2023/05/03 02:33:56;;;;;;;4.68;1.35;;;;;;;3.61;98.11;101984.25;5110251;28;20413;-71
2023/05/03 02:36:26;;;;;;;2.45;1.00;;;;;;;3.60;98.01;101971.34;5108405;28;20032;-72
2023/05/03 02:38:57;;;;;;;1.80;1.00;;;;;;;3.53;98.68;101973.81;5108599;28;20525;-73
2023/05/03 02:41:27;;;;;;;1.90;0.98;;;;;;;3.44;100.00;101973.63;5108662;28;20430;-71
2023/05/03 02:43:57;;;;;;;5.68;1.33;;;;;;;3.42;99.46;101965.00;5111157;28;20071;-69
2023/05/03 02:46:28;;;;;;;3.22;1.20;;;;;;;3.30;100.00;101975.13;5110914;28;20027;-71
2023/05/03 02:48:58;;;;;;;2.10;0.93;;;;;;;3.21;100.00;101975.84;5104338;28;20759;-70
2023/05/03 02:51:28;;;;;;;2.17;1.30;;;;;;;3.39;100.00;101972.72;5112237;29;20031;-72
2023/05/03 02:53:59;;;;;;;2.22;1.20;;;;;;;3.65;99.28;101974.84;5112352;28;20508;-72
2023/05/03 02:56:29;;;;;;;4.85;1.10;;;;;;;3.69;97.27;101977.50;5111554;28;20404;-73
2023/05/03 02:58:59;;;;;;;2.70;1.65;;;;;;;3.78;95.43;101980.19;5108634;29;20218;-73
2023/05/03 03:01:29;;;;;;;5.35;1.10;;;;;;;3.43;94.68;101987.41;5105421;28;20560;-72
2023/05/03 03:04:00;;;;;;;3.40;1.15;;;;;;;3.34;97.68;101989.88;5103268;29;20020;-73
2023/05/03 03:06:30;;;;;;;2.78;1.08;;;;;;;3.19;98.24;101987.88;5110292;28;20015;-74
2023/05/03 03:09:00;;;;;;;3.55;1.10;;;;;;;3.10;99.55;101981.69;5104223;28;20114;-72
2023/05/03 03:11:31;;;;;;;3.65;1.30;;;;;;;3.17;100.00;101983.56;5109237;29;20035;-72
2023/05/03 03:14:01;;;;;;;3.80;1.10;;;;;;;3.10;99.96;101989.44;5108388;28;20564;-72
2023/05/03 03:16:31;;;;;;;3.65;1.33;;;;;;;3.16;100.00;101987.84;5107549;28;20461;-73
2023/05/03 03:19:02;;;;;;;3.72;1.30;;;;;;;3.06;100.00;101982.50;5103907;28;20044;-72
2023/05/03 03:21:32;;;;;;;3.95;1.25;;;;;;;3.04;100.00;101981.59;5124589;28;20541;-73
2023/05/03 03:24:03;;;;;;;3.63;1.42;;;;;;;3.02;100.00;101993.63;5104541;28;20036;-71
2023/05/03 03:26:33;;;;;;;6.90;1.55;;;;;;;2.91;100.00;101995.13;5100251;29;20031;-73
2023/05/03 03:29:04;;;;;;;2.72;1.20;;;;;;;2.97;100.00;101995.22;5098778;29;20071;-73
2023/05/03 03:31:34;;;;;;;3.47;1.23;;;;;;;3.10;100.00;101992.03;5099117;29;20034;-73
2023/05/03 03:34:04;;;;;;;15.77;4.70;;;;;;;3.07;100.00;102002.31;5102858;29;20099;-72
2023/05/03 03:36:36;;;;;;;7.32;2.65;;;;;;;3.26;100.00;101997.50;5102880;28;20031;-73
2023/05/03 03:39:07;;;;;;;2.67;1.33;;;;;;;3.12;98.87;102005.81;5099227;29;20028;-72
2023/05/03 03:41:37;;;;;;;3.88;1.13;;;;;;;2.92;99.35;102010.66;5098072;29;20031;-72
2023/05/03 03:44:07;;;;;;;2.33;1.20;;;;;;;3.03;99.86;102008.25;5099921;28;20405;-73
2023/05/03 03:46:38;;;;;;;1.98;1.27;;;;;;;3.04;98.58;102012.59;5164714;23;20034;-71
2023/05/03 03:49:08;;;;;;;1.90;1.40;;;;;;;3.08;99.19;102015.25;5157743;28;20113;-71
2023/05/03 03:51:38;;;;;;;1.85;1.20;;;;;;;2.95;99.46;102015.88;5154927;28;20097;-72
2023/05/03 03:54:09;;;;;;;5.05;1.80;;;;;;;2.89;100.00;102015.75;5159460;28;20041;-70
2023/05/03 03:56:39;;;;;;;4.85;1.70;;;;;;;2.98;100.00;102012.47;5145170;28;20030;-72
2023/05/03 03:59:09;;;;;;;2.42;1.52;;;;;;;3.11;100.00;102019.59;5139285;28;20453;-70
2023/05/03 04:01:40;;;;;;;2.65;1.50;;;;;;;3.14;98.30;102014.47;5136525;28;20026;-72
2023/05/03 04:04:10;;;;;;;3.33;1.52;;;;;;;2.91;98.16;102020.94;5140464;28;20046;-71
2023/05/03 04:06:40;;;;;;;4.38;2.00;;;;;;;2.89;100.00;102017.47;5147658;28;20030;-71
2023/05/03 04:09:11;;;;;;;6.03;1.90;;;;;;;2.88;100.00;102019.16;5141360;28;20420;-71
2023/05/03 04:11:41;;;;;;;5.47;1.65;;;;;;;2.99;100.00;102020.25;5141766;28;20038;-71
2023/05/03 04:14:11;;;;;;;3.20;1.63;;;;;;;3.22;100.00;102012.91;5138632;28;20030;-70
2023/05/03 04:16:42;;;;;;;7.43;1.85;;;;;;;3.25;100.00;102013.84;5140378;28;20244;-71
2023/05/03 04:19:12;;;;;;;2.63;1.48;;;;;;;3.18;99.86;102019.72;5138387;28;20089;-71
2023/05/03 04:21:43;;;;;;;3.22;1.60;;;;;;;3.12;100.00;102017.03;5140271;28;20378;-71
2023/05/03 04:24:16;;;;;;;5.55;1.50;;;;;;;2.99;100.00;102021.97;5144565;28;20543;-71
2023/05/03 04:26:47;;;;;;;3.28;1.50;;;;;;;3.23;100.00;102024.97;5144048;28;20039;-72
2023/05/03 04:29:18;;;;;;;3.75;1.73;;;;;;;3.27;99.32;102021.59;5140365;28;20089;-71
2023/05/03 04:31:49;;;;;;;6.90;1.50;;;;;;;3.29;100.00;102022.47;5142644;28;20030;-71
2023/05/03 04:34:19;;;;;;;4.95;1.42;;;;;;;3.46;100.00;102024.50;5139250;28;20579;-71
2023/05/03 04:36:49;;;;;;;4.57;1.48;;;;;;;3.35;99.72;102022.59;5138502;28;20023;-71
2023/05/03 04:39:21;;;;;;;4.28;1.75;;;;;;;3.40;98.91;102021.81;5141858;28;20057;-72
2023/05/03 04:41:51;;;;;;;5.57;1.55;;;;;;;3.42;100.00;102022.72;5140249;28;20031;-71
2023/05/03 04:44:21;;;;;;;4.90;1.88;;;;;;;3.67;100.00;102019.66;5141794;28;20556;-71
2023/05/03 04:46:52;;;;;;;3.85;1.63;;;;;;;4.16;96.13;102015.22;5140427;28;20162;-72
2023/05/03 04:49:22;;;;;;;3.95;1.63;;;;;;;5.38;95.58;102010.50;5140277;28;20078;-72
2023/05/03 04:51:52;;;;;;;4.97;1.58;;;;;;;6.35;85.84;102004.25;5145031;28;20492;-72
2023/05/03 04:54:22;;;;;;;2.78;1.05;;;;;;;7.60;81.02;101995.81;5140749;28;20434;-72
2023/05/03 04:56:54;;;;;;;4.07;1.60;;;;;;;7.92;78.82;101997.53;5139065;28;20147;-71
2023/05/03 04:59:24;;;;;;;2.03;1.20;;;;;;;8.88;74.48;101998.91;5141994;28;20026;-71
2023/05/03 05:01:54;;;;;;;1.73;1.00;;;;;;;10.77;73.02;101990.03;5149278;28;20439;-73
2023/05/03 05:04:25;;;;;;;3.95;1.00;;;;;;;11.36;66.21;101994.38;5140154;28;20185;-71
2023/05/03 05:06:55;;;;;;;2.08;1.00;;;;;;;10.84;66.76;102003.00;5142812;28;20038;-71
2023/05/03 05:09:27;;;;;;;3.30;0.97;;;;;;;12.56;66.37;101983.38;5141177;28;20551;-72
2023/05/03 05:11:58;;;;;;;2.35;1.38;;;;;;;12.07;65.24;101988.75;5142907;28;20312;-73
2023/05/03 05:14:30;;;;;;;3.58;1.70;;;;;;;13.78;61.24;101998.00;5147531;28;20022;-73
2023/05/03 05:17:00;;;;;;;3.83;1.60;;;;;;;13.65;60.48;101994.81;5147257;28;20022;-72
2023/05/03 05:19:30;;;;;;;3.30;1.30;;;;;;;14.49;59.17;101991.66;5147814;28;20018;-71
2023/05/03 05:22:01;;;;;;;3.75;1.20;;;;;;;14.01;59.02;102006.13;5144312;28;20258;-71
2023/05/03 05:24:31;;;;;;;4.72;1.20;;;;;;;15.08;57.32;101995.09;5147492;28;20049;-72
2023/05/03 05:27:01;;;;;;;5.17;1.50;;;;;;;15.91;55.42;101994.97;5145135;28;20029;-71
2023/05/03 05:29:32;;;;;;;2.63;1.02;;;;;;;16.71;53.34;101988.47;5149245;28;20722;-73
2023/05/03 05:32:04;;;;;;;3.63;1.38;;;;;;;15.79;55.86;102003.28;5142779;28;20111;-73
2023/05/03 05:34:34;;;;;;;2.72;1.30;;;;;;;16.63;53.76;101993.19;5148922;28;20485;-72
2023/05/03 05:37:05;;;;;;;3.53;1.67;;;;;;;16.11;55.79;102011.81;5145878;28;20038;-73
2023/05/03 05:39:35;;;;;;;4.18;1.58;;;;;;;17.59;54.66;101994.59;5142615;28;20030;-73
2023/05/03 05:42:05;;;;;;;3.17;1.30;;;;;;;17.33;52.84;102003.56;5145637;28;20030;-73
2023/05/03 05:44:36;;;;;;;3.70;1.30;;;;;;;18.08;51.41;102002.16;5149563;28;20293;-73
2023/05/03 05:47:06;;;;;;;3.50;1.42;;;;;;;17.62;52.60;102007.72;5144000;28;20277;-72
2023/05/03 05:49:36;;;;;;;3.28;1.50;;;;;;;18.16;52.28;102010.66;5144766;28;20404;-73
2023/05/03 05:52:07;;;;;;;2.83;1.20;;;;;;;18.66;53.91;102003.97;5141100;28;20812;-73
2023/05/03 05:54:37;;;;;;;3.03;1.40;;;;;;;18.54;52.55;102008.03;5141660;28;20027;-70
2023/05/03 05:57:07;;;;;;;3.42;1.50;;;;;;;18.01;52.42;102013.97;5143555;28;20284;-71
2023/05/03 05:59:38;;;;;;;5.75;1.45;;;;;;;17.99;52.23;102013.16;5143433;28;20037;-70
2023/05/03 06:02:15;;;;;;;3.58;1.52;;;;;;;17.14;53.55;102009.66;5145972;28;20396;-71
2023/05/03 06:04:46;;;;;;;4.05;1.77;;;;;;;13.74;60.79;102028.72;5145196;28;20555;-71
2023/05/03 06:07:16;;;;;;;7.03;2.08;;;;;;;12.43;66.05;102035.22;5144953;28;20092;-70
2023/05/03 06:09:46;;;;;;;5.78;2.25;;;;;;;12.04;67.50;102037.75;5144531;28;20065;-73
2023/05/03 06:12:17;;;;;;;6.70;2.17;;;;;;;12.10;69.52;102035.03;5144935;28;20019;-71
2023/05/03 06:14:47;;;;;;;8.18;2.10;;;;;;;13.58;65.30;102031.78;5146768;28;20042;-73
2023/05/03 06:17:18;;;;;;;7.93;2.20;;;;;;;14.08;61.58;102034.84;5144007;28;20029;-71
2023/05/03 06:19:48;;;;;;;5.40;1.90;;;;;;;15.67;59.56;102023.00;5148005;28;20114;-71
2023/05/03 06:22:18;;;;;;;4.63;2.47;;;;;;;14.90;60.75;102034.28;5144381;28;20023;-70
2023/05/03 06:24:49;;;;;;;3.77;1.60;;;;;;;14.98;58.83;102032.28;5147475;28;20101;-71
2023/05/03 06:27:19;;;;;;;5.63;2.08;;;;;;;14.28;60.83;102037.81;5148734;28;20356;-72
2023/05/03 06:29:50;;;;;;;4.75;1.52;;;;;;;16.50;59.53;102020.97;5144963;28;20787;-73
2023/05/03 06:32:20;;;;;;;6.32;1.80;;;;;;;14.70;58.78;102041.03;5144157;28;20081;-74
2023/05/03 06:34:51;;;;;;;5.95;1.90;;;;;;;16.59;58.04;102022.41;5146877;28;20122;-71
2023/05/03 06:37:22;;;;;;;3.33;1.50;;;;;;;16.43;55.77;102021.25;5143992;28;20057;-71
2023/05/03 06:39:52;;;;;;;3.78;1.48;;;;;;;17.77;54.15;102018.50;5143446;28;20081;-70
2023/05/03 06:42:22;;;;;;;5.27;2.00;;;;;;;17.12;54.16;102027.38;5147034;28;20037;-71
2023/05/03 06:44:53;;;;;;;3.72;1.50;;;;;;;18.31;51.87;102020.59;5145435;28;20325;-71
2023/05/03 06:47:23;;;;;;;4.23;1.60;;;;;;;16.20;53.65;102032.59;5144517;28;20041;-70
2023/05/03 06:49:53;;;;;;;6.13;1.57;;;;;;;15.11;56.32;102028.34;5144863;28;20384;-70
2023/05/03 06:52:24;;;;;;;4.38;1.58;;;;;;;16.00;55.40;102018.34;5141847;28;20709;-70
2023/05/03 06:54:54;;;;;;;4.25;1.50;;;;;;;15.94;57.22;102022.09;5145205;28;20026;-72
2023/05/03 06:57:25;;;;;;;5.05;1.63;;;;;;;16.80;53.35;102018.03;5143102;28;20094;-72
2023/05/03 06:59:55;;;;;;;4.03;1.67;;;;;;;13.51;62.19;102032.81;5143446;28;20026;-71
2023/05/03 07:02:26;;;;;;;4.35;1.60;;;;;;;16.18;56.73;102023.03;5145141;28;20333;-72
2023/05/03 07:04:56;;;;;;;5.82;1.50;;;;;;;15.43;55.63;102028.22;5144283;28;20065;-73
2023/05/03 07:07:26;;;;;;;4.53;1.87;;;;;;;14.47;57.67;102032.94;5145807;28;20045;-73
2023/05/03 07:09:57;;;;;;;4.68;1.65;;;;;;;14.72;57.81;102040.06;5142324;28;20277;-72
2023/05/03 07:12:27;;;;;;;2.53;1.20;;;;;;;15.01;58.31;102025.13;5143207;28;20129;-73
2023/05/03 07:14:57;;;;;;;3.72;1.48;;;;;;;15.37;55.60;102025.81;5144372;28;20744;-71
2023/05/03 07:17:28;;;;;;;4.47;1.40;;;;;;;15.00;55.78;102030.47;5145210;28;20126;-71
2023/05/03 07:19:58;;;;;;;2.80;1.10;;;;;;;14.85;55.02;102031.75;5145958;28;20161;-70
2023/05/03 07:22:28;;;;;;;5.22;1.30;;;;;;;14.16;58.08;102034.66;5144720;28;20077;-71
2023/05/03 07:24:59;;;;;;;3.95;1.35;;;;;;;15.12;57.73;102027.44;5143987;28;20404;-71
2023/05/03 07:27:29;;;;;;;4.70;1.30;;;;;;;15.08;58.83;102031.94;5145199;28;20069;-71
2023/05/03 07:29:59;;;;;;;3.97;0.90;;;;;;;16.56;54.88;102020.72;5142934;28;20018;-72
2023/05/03 07:32:31;;;;;;;1.20;0.60;;;;;;;16.86;52.15;102023.09;5144618;28;20092;-71
2023/05/03 07:35:02;;;;;;;4.28;0.77;;;;;;;16.25;52.88;102014.78;5141604;28;20105;-71
2023/05/03 07:37:32;;;;;;;5.07;0.90;;;;;;;16.11;52.36;102021.50;5141296;28;20113;-70
2023/05/03 07:40:05;;;;;;;1.45;0.77;;;;;;;15.45;52.76;102021.13;5142327;28;20117;-70
2023/05/03 07:42:36;;;;;;;3.83;0.50;;;;;;;15.56;53.25;102025.13;5142295;28;20037;-71
2023/05/03 07:45:06;;;;;;;1.88;0.60;;;;;;;18.96;48.69;102004.25;5137910;28;20031;-71
2023/05/03 07:47:38;;;;;;;1.65;0.63;;;;;;;19.79;46.51;101994.88;5139527;28;20034;-71
2023/05/03 07:50:09;;;;;;;3.20;0.75;;;;;;;19.87;45.23;101993.53;5142760;28;20449;-71
2023/05/03 07:52:41;;;;;;;2.85;0.45;;;;;;;19.76;45.68;102001.16;5143818;28;20030;-71
2023/05/03 07:55:11;;;;;;;3.65;0.60;;;;;;;19.98;44.98;102007.09;5146574;28;20018;-72
2023/05/03 07:57:42;;;;;;;2.10;0.52;;;;;;;18.26;47.32;102009.31;5142997;28;20038;-72
2023/05/03 08:00:13;;;;;;;2.45;1.10;;;;;;;19.21;44.84;102004.84;5144145;28;20039;-71
2023/05/03 08:02:44;;;;;;;1.80;0.55;;;;;;;20.68;45.21;101991.81;5146027;28;20038;-72
2023/05/03 08:05:14;;;;;;;1.48;0.50;;;;;;;21.92;43.07;101991.75;5145458;28;20037;-71
2023/05/03 08:07:44;;;;;;;5.45;0.98;;;;;;;20.83;44.39;101993.63;5143789;28;20583;-71
2023/05/03 08:10:15;;;;;;;1.50;0.47;;;;;;;17.05;48.73;102010.91;5139155;28;20061;-71
2023/05/03 08:12:45;;;;;;;2.22;0.70;;;;;;;16.29;51.55;102013.78;5140534;28;20062;-71
2023/05/03 08:15:15;;;;;;;2.08;0.70;;;;;;;16.48;50.84;102012.25;5144653;28;20031;-72
2023/05/03 08:17:46;;;;;;;1.65;0.63;;;;;;;15.00;53.18;102019.94;5143108;28;20525;-71
2023/05/03 08:20:16;;;;;;;3.33;0.70;;;;;;;13.91;55.83;102021.28;5143723;28;20516;-71
2023/05/03 08:22:46;;;;;;;2.42;0.77;;;;;;;12.57;58.66;102030.56;5142541;28;20053;-71
2023/05/03 08:25:17;;;;;;;2.88;0.60;;;;;;;12.62;58.61;102023.47;5144238;28;20042;-71
2023/05/03 08:27:48;;;;;;;3.33;0.85;;;;;;;11.70;60.88;102034.84;5143077;28;20026;-70
2023/05/03 08:30:20;;;;;;;3.67;1.00;;;;;;;11.71;61.07;102044.44;5142124;28;20104;-71
2023/05/03 08:32:51;;;;;;;2.97;0.60;;;;;;;12.18;61.13;102028.75;5144776;28;20038;-71
2023/05/03 08:35:21;;;;;;;1.50;0.70;;;;;;;12.51;59.91;102029.84;5149050;28;20081;-70
2023/05/03 08:37:51;;;;;;;4.88;0.70;;;;;;;12.35;59.41;102031.03;5146137;28;20035;-71
2023/05/03 08:40:22;;;;;;;5.20;0.77;;;;;;;12.72;59.69;102026.75;5148440;28;20404;-70
2023/05/03 08:42:55;;;;;;;1.90;0.90;;;;;;;12.70;59.40;102026.81;5143944;28;20042;-69
2023/05/03 08:45:26;;;;;;;1.88;0.68;;;;;;;12.66;58.47;102025.13;5148956;28;20054;-70
2023/05/03 08:47:56;;;;;;;1.42;0.55;;;;;;;12.68;58.77;102022.47;5143220;28;20034;-70
2023/05/03 08:50:26;;;;;;;0.77;0.50;;;;;;;12.71;58.85;102027.66;5148785;28;20121;-70
2023/05/03 08:52:58;;;;;;;2.85;0.63;;;;;;;12.56;58.64;102039.34;5149372;28;20084;-71
2023/05/03 08:55:28;;;;;;;4.07;0.88;;;;;;;12.62;57.57;102027.88;5149102;28;20023;-70
2023/05/03 08:57:59;;;;;;;1.90;0.70;;;;;;;15.26;56.18;102018.22;5149255;28;20028;-71
2023/05/03 09:00:29;;;;;;;4.40;0.90;;;;;;;17.63;50.01;102006.78;5149611;28;20026;-70
2023/05/03 09:03:00;;;;;;;1.40;0.63;;;;;;;18.76;48.84;102009.63;5147512;28;20761;-71
2023/05/03 09:05:32;;;;;;;2.72;0.85;;;;;;;18.20;47.88;102012.22;5148882;28;20026;-71
2023/05/03 09:08:12;;;;;;;3.20;0.60;;;;;;;16.92;50.89;102014.03;5147812;28;20029;-71
2023/05/03 09:10:42;;;;;;;2.42;0.70;;;;;;;16.61;49.73;102008.25;5147189;28;20070;-72
2023/05/03 09:13:13;;;;;;;1.92;0.80;;;;;;;17.05;51.88;102016.19;5144572;28;20033;-71
2023/05/03 09:15:52;;;;;;;2.40;0.77;;;;;;;16.13;51.07;102031.09;5148799;28;20092;-71
2023/05/03 09:18:23;;;;;;;3.28;0.70;;;;;;;17.08;50.49;102016.06;5145739;28;20082;-71
2023/05/03 09:20:54;;;;;;;3.63;0.80;;;;;;;16.63;50.41;102016.97;5149640;28;20367;-71
2023/05/03 09:23:30;;;;;;;4.22;0.70;;;;;;;15.97;52.75;102019.34;5148944;28;20113;-71
2023/05/03 09:26:00;;;;;;;3.95;0.82;;;;;;;15.16;54.68;102029.94;5146594;28;20027;-71
2023/05/03 09:28:39;;;;;;;2.40;0.77;;;;;;;14.16;58.67;102032.03;5147062;28;20023;-70
2023/05/03 09:31:10;;;;;;;2.30;0.80;;;;;;;13.72;58.30;102034.94;5145955;28;20078;-70
2023/05/03 09:33:40;;;;;;;3.75;0.90;;;;;;;13.85;59.02;102037.22;5148833;28;20511;-71
2023/05/03 09:36:10;;;;;;;5.30;1.00;;;;;;;14.24;56.15;102030.09;5148396;28;20121;-71
2023/05/03 09:38:41;;;;;;;3.22;0.60;;;;;;;14.38;56.08;102027.91;5142595;28;20710;-71
2023/05/03 09:41:11;;;;;;;4.45;1.00;;;;;;;14.55;56.67;102028.28;5146346;28;20031;-71
2023/05/03 09:43:54;;;;;;;3.88;1.00;;;;;;;14.98;55.77;102030.50;5145274;28;20030;-71
2023/05/03 09:49:00;;;;;;;3.83;0.77;;;;;;;14.72;55.86;102037.44;5105383;29;20428;-72
2023/05/03 09:51:33;;;;;;;1.58;0.50;;;;;;;14.64;55.18;102030.69;5109791;29;20549;-73
2023/05/03 09:54:03;;;;;;;6.93;0.95;;;;;;;14.55;54.35;102026.53;5105407;29;20382;-72
2023/05/03 09:56:34;;;;;;;4.97;0.70;;;;;;;12.42;59.09;102036.13;5107725;28;20015;-72
2023/05/03 09:59:06;;;;;;;5.28;0.70;;;;;;;12.33;59.49;102035.44;5104884;29;20042;-72
2023/05/03 10:01:37;;;;;;;1.65;0.70;;;;;;;12.77;58.05;102031.03;5108806;29;20027;-71
2023/05/03 10:04:09;;;;;;;3.83;0.63;;;;;;;13.80;56.69;102017.19;5102777;29;20266;-73
2023/05/03 10:06:42;;;;;;;3.88;0.80;;;;;;;14.39;57.25;102011.25;5107381;28;20031;-74
2023/05/03 10:09:39;;;;;;;2.65;0.70;;;;;;;14.80;55.54;102005.63;5104344;28;20417;-72
2023/05/03 10:12:11;;;;;;;4.55;0.70;;;;;;;14.79;56.11;102014.44;5102441;29;20030;-71
2023/05/03 10:14:46;;;;;;;3.90;0.70;;;;;;;14.46;56.73;102010.16;5104387;29;20035;-73
2023/05/03 10:17:32;;;;;;;3.17;0.70;;;;;;;13.41;58.75;102023.47;5107149;28;20040;-72
2023/05/03 10:20:26;;;;;;;5.43;0.90;;;;;;;13.64;58.88;102010.63;5104805;29;20125;-73
2023/05/03 10:23:08;;;;;;;3.83;0.95;;;;;;;12.99;58.77;102012.19;5108024;28;20091;-72
2023/05/03 10:25:59;;;;;;;4.88;0.70;;;;;;;13.71;58.74;102006.94;5105706;28;20571;-71
2023/05/03 10:28:32;;;;;;;3.28;0.90;;;;;;;14.04;57.55;102016.56;5106478;29;20035;-71
2023/05/03 10:31:03;;;;;;;2.13;0.70;;;;;;;13.74;56.97;102009.50;5106788;29;20576;-72
2023/05/03 10:33:36;;;;;;;8.43;1.10;;;;;;;13.32;59.56;102002.66;5118278;28;20125;-71
2023/05/03 10:36:09;;;;;;;3.63;0.80;;;;;;;12.57;61.02;102020.09;5101459;28;20024;-71
2023/05/03 10:38:41;;;;;;;2.25;0.50;;;;;;;12.91;60.51;102015.84;5101886;29;20113;-72
2023/05/03 10:41:11;;;;;;;4.30;1.10;;;;;;;12.76;61.19;102013.56;5102102;29;20118;-72
2023/05/03 10:43:43;;;;;;;2.72;0.80;;;;;;;12.69;60.83;102008.47;5104653;28;20058;-73
2023/05/03 10:46:31;;;;;;;2.35;0.90;;;;;;;13.31;62.78;101999.19;5107513;28;20046;-72
2023/05/03 10:49:14;;;;;;;1.75;0.80;;;;;;;13.31;60.69;101995.69;5104094;29;20034;-73
2023/05/03 10:51:45;;;;;;;2.33;0.75;;;;;;;14.07;58.57;101984.94;5103998;29;20078;-72
2023/05/03 10:54:17;;;;;;;1.92;0.82;;;;;;;14.11;58.60;101981.31;5106958;28;20036;-71
2023/05/03 10:56:52;;;;;;;2.47;0.88;;;;;;;13.62;58.61;101991.41;5107600;28;20038;-72
2023/05/03 10:59:23;;;;;;;;;;;;;;;13.30;59.88;101992.22;5106562;29;20024;-72
2023/05/03 11:01:54;;;;;;;3.33;0.93;;;;;;;13.38;60.37;101999.91;5108449;28;20395;-72
2023/05/03 11:04:44;;;;;;;5.80;1.05;;;;;;;13.89;61.15;101982.81;5104485;28;20030;-73
2023/05/03 11:07:21;;;;;;;2.65;0.80;;;;;;;14.46;61.34;101979.44;5106308;29;20038;-71
2023/05/03 11:09:51;;;;;;;1.17;0.70;;;;;;;14.33;58.07;101982.47;5102858;29;20039;-70
2023/05/03 11:12:22;;;;;;;3.03;0.70;;;;;;;13.84;58.16;101982.06;5104354;29;20034;-72
2023/05/03 11:14:52;;;;;;;4.22;0.73;;;;;;;13.45;59.17;101983.06;5106174;29;20802;-74
2023/05/03 11:17:22;;;;;;;3.22;0.88;;;;;;;13.35;57.88;101971.94;5107650;28;20023;-71
2023/05/03 11:19:53;;;;;;;3.15;0.88;;;;;;;12.45;58.05;101980.16;5108183;28;20035;-71
2023/05/03 11:22:23;;;;;;;9.13;2.35;;;;;;;12.34;59.00;101977.75;5108273;29;20039;-71
2023/05/03 11:24:54;;;;;;;3.15;0.80;;;;;;;12.56;61.09;101968.53;5108588;28;20087;-69
2023/05/03 11:27:25;;;;;;;2.67;0.85;;;;;;;12.43;59.37;101968.81;5107750;28;20038;-74
2023/05/03 11:29:57;;;;;;;5.35;1.10;;;;;;;12.98;59.67;101970.22;5099480;28;20390;-73
2023/05/03 11:32:28;;;;;;;4.03;1.00;;;;;;;12.69;59.94;101966.50;5108596;29;20398;-73
2023/05/03 11:35:01;;;;;;;3.03;0.82;;;;;;;13.18;58.95;101968.84;5104124;29;20030;-71
2023/05/03 11:37:32;;;;;;;2.92;0.80;;;;;;;13.53;58.01;101960.09;5099141;29;20031;-72
2023/05/03 11:40:03;;;;;;;8.60;1.10;;;;;;;13.74;58.34;101959.56;5100947;29;20027;-73
2023/05/03 11:42:34;;;;;;;4.40;1.00;;;;;;;13.91;59.20;101946.84;5099412;29;20022;-72
2023/05/03 11:45:05;;;;;;;3.28;1.10;;;;;;;13.77;58.21;101954.22;5118256;28;20042;-72
2023/05/03 11:47:37;;;;;;;4.22;0.98;;;;;;;13.23;58.31;101958.25;5106824;28;20401;-70
2023/05/03 11:50:08;;;;;;;3.38;1.00;;;;;;;13.45;59.24;101957.69;5104218;29;20081;-71
2023/05/03 11:52:40;;;;;;;1.92;0.77;;;;;;;12.98;58.76;101952.72;5107565;28;20031;-71